Time;durP1;ratioP1;P1;durP2;ratioP2;P2;SDS_P1;SDS_P2;PMS_P1;PMS_P2;Temp;Humidity;BMP_temperature;BMP_pressure;BME280_temperature;BME280_humidity;BME280_pressure;Samples;Min_cycle;Max_cycle;Signal;HPM_P1;HPM_P2
2021/05/07 00:01:01;;;;;;;4.00;3.60;;;18.10;27.30;;;;;;5009309;28;20416;-74
2021/05/07 00:03:27;;;;;;;3.50;3.40;;;18.10;27.30;;;;;;5009296;28;20416;-74
2021/05/07 00:05:56;;;;;;;3.60;3.30;;;18.10;27.30;;;;;;5008896;28;20931;-74
2021/05/07 00:08:27;;;;;;;3.90;3.60;;;18.10;27.30;;;;;;5007543;28;20471;-74
2021/05/07 00:10:54;;;;;;;3.80;3.50;;;18.10;27.30;;;;;;5007573;28;20479;-74
2021/05/07 00:13:20;;;;;;;3.53;3.30;;;18.10;27.30;;;;;;5008044;28;20416;-74
2021/05/07 00:15:46;;;;;;;3.30;3.10;;;18.10;27.30;;;;;;5005460;28;20934;-74
2021/05/07 00:18:12;;;;;;;3.63;3.33;;;18.10;27.30;;;;;;5005111;28;20550;-73
2021/05/07 00:20:37;;;;;;;3.20;3.00;;;18.10;27.30;;;;;;5006436;28;20188;-73
2021/05/07 00:23:03;;;;;;;3.90;3.60;;;18.10;27.30;;;;;;5009049;28;20187;-74
2021/05/07 00:25:28;;;;;;;3.47;3.27;;;18.10;27.30;;;;;;5009652;28;20510;-74
2021/05/07 00:28:03;;;;;;;3.60;3.40;;;18.10;27.30;;;;;;5009041;28;20181;-74
2021/05/07 00:30:29;;;;;;;3.50;3.30;;;18.10;27.30;;;;;;5009186;28;20173;-74
2021/05/07 00:32:55;;;;;;;3.57;3.40;;;18.10;27.30;;;;;;5008800;28;20431;-74
2021/05/07 00:35:21;;;;;;;3.53;3.40;;;18.10;27.40;;;;;;5008256;28;20181;-74
2021/05/07 00:37:46;;;;;;;3.70;3.50;;;18.10;27.30;;;;;;5008712;28;20200;-74
2021/05/07 00:40:12;;;;;;;3.43;3.23;;;18.10;27.30;;;;;;5008520;28;20759;-74
2021/05/07 00:42:38;;;;;;;3.83;3.53;;;18.10;27.30;;;;;;5008317;28;20178;-74
2021/05/07 00:45:06;;;;;;;3.33;3.13;;;18.10;27.40;;;;;;5008141;28;20418;-75
2021/05/07 00:47:36;;;;;;;3.60;3.40;;;18.00;27.30;;;;;;5008500;28;20181;-74
2021/05/07 00:50:05;;;;;;;3.37;3.17;;;18.10;27.30;;;;;;5006671;28;21196;-74
2021/05/07 00:52:34;;;;;;;3.60;3.30;;;18.00;27.30;;;;;;5007171;28;20514;-74
2021/05/07 00:55:02;;;;;;;3.87;3.67;;;18.00;27.30;;;;;;5008241;28;20495;-74
2021/05/07 00:57:28;;;;;;;4.33;3.87;;;18.10;27.30;;;;;;5007900;28;20428;-74
2021/05/07 00:59:53;;;;;;;3.73;3.47;;;18.00;27.30;;;;;;5008282;28;20440;-74
2021/05/07 01:02:19;;;;;;;3.43;3.13;;;18.00;27.30;;;;;;5009617;28;20434;-74
2021/05/07 01:04:45;;;;;;;3.30;3.10;;;18.00;27.30;;;;;;5012122;28;20177;-73
2021/05/07 01:07:10;;;;;;;3.13;3.00;;;18.00;27.30;;;;;;5012072;28;20170;-74
2021/05/07 01:09:36;;;;;;;3.20;3.00;;;18.00;27.30;;;;;;5012334;28;20256;-74
2021/05/07 01:12:02;;;;;;;3.93;3.63;;;18.00;27.30;;;;;;5010605;28;20551;-74
2021/05/07 01:14:27;;;;;;;2.90;2.80;;;18.00;27.30;;;;;;5009906;28;20193;-74
2021/05/07 01:16:53;;;;;;;3.40;3.20;;;18.00;27.30;;;;;;5009390;28;20822;-74
2021/05/07 01:19:18;;;;;;;2.90;2.70;;;18.00;27.30;;;;;;5009225;28;20217;-74
2021/05/07 01:21:45;;;;;;;2.80;2.70;;;18.00;27.30;;;;;;5008793;28;20280;-74
2021/05/07 01:24:11;;;;;;;3.07;2.90;;;18.00;27.30;;;;;;5009883;28;20169;-74
2021/05/07 01:26:41;;;;;;;3.10;3.00;;;18.00;27.30;;;;;;5009866;28;20773;-74
2021/05/07 01:29:13;;;;;;;3.30;3.10;;;18.00;27.40;;;;;;5010470;28;21127;-74
2021/05/07 01:31:42;;;;;;;2.70;2.60;;;18.00;27.40;;;;;;5010654;28;20460;-74
2021/05/07 01:34:08;;;;;;;3.07;2.97;;;18.00;27.40;;;;;;5011765;28;20523;-73
2021/05/07 01:36:33;;;;;;;2.83;2.63;;;18.00;27.40;;;;;;5011579;28;20495;-74
2021/05/07 01:38:59;;;;;;;2.80;2.70;;;18.00;27.40;;;;;;5011658;28;20704;-73
2021/05/07 01:41:25;;;;;;;3.10;2.90;;;18.00;27.40;;;;;;5011829;28;20726;-73
2021/05/07 01:43:50;;;;;;;3.03;2.83;;;18.00;27.30;;;;;;5011803;28;20511;-73
2021/05/07 01:46:16;;;;;;;2.73;2.63;;;18.00;27.40;;;;;;5009090;28;20180;-73
2021/05/07 01:48:42;;;;;;;3.30;3.10;;;18.00;27.40;;;;;;5009831;28;20201;-74
2021/05/07 01:51:08;;;;;;;3.13;2.97;;;18.00;27.40;;;;;;5011540;28;20212;-73
2021/05/07 01:53:34;;;;;;;3.13;2.93;;;18.00;27.30;;;;;;5011129;28;20234;-73
2021/05/07 01:55:59;;;;;;;2.40;2.30;;;18.00;27.30;;;;;;5008772;28;20416;-73
2021/05/07 01:58:25;;;;;;;2.83;2.73;;;17.90;27.30;;;;;;5011247;28;20219;-73
2021/05/07 02:00:51;;;;;;;3.00;2.80;;;18.00;27.30;;;;;;5011458;28;20177;-73
2021/05/07 02:03:17;;;;;;;2.70;2.60;;;17.90;27.30;;;;;;5009684;28;20426;-74
2021/05/07 02:05:42;;;;;;;3.20;3.00;;;17.90;27.30;;;;;;5011104;28;20300;-73
2021/05/07 02:08:10;;;;;;;3.43;3.20;;;17.90;27.30;;;;;;5011188;28;20718;-74
2021/05/07 02:10:36;;;;;;;3.53;3.33;;;17.90;27.40;;;;;;5011004;28;20644;-74
2021/05/07 02:13:07;;;;;;;2.90;2.80;;;17.90;27.40;;;;;;5010433;28;20514;-74
2021/05/07 02:15:33;;;;;;;3.27;3.17;;;17.90;27.40;;;;;;5008356;28;20459;-73
2021/05/07 02:17:58;;;;;;;3.17;2.97;;;17.90;27.30;;;;;;5007491;28;20452;-73
2021/05/07 02:20:26;;;;;;;2.60;2.50;;;17.90;27.30;;;;;;5008028;28;20416;-74
2021/05/07 02:22:52;;;;;;;3.73;2.80;;;17.90;27.30;;;;;;5008291;28;20670;-74
2021/05/07 02:25:20;;;;;;;2.70;2.60;;;17.90;27.40;;;;;;5010595;28;20419;-75
2021/05/07 02:27:47;;;;;;;3.50;3.30;;;17.90;27.40;;;;;;5008331;28;20455;-73
2021/05/07 02:30:15;;;;;;;2.90;2.60;;;17.90;27.40;;;;;;5010017;28;20436;-74
2021/05/07 02:32:41;;;;;;;3.00;2.80;;;17.90;27.40;;;;;;5011149;28;20417;-74
2021/05/07 02:35:07;;;;;;;2.83;2.73;;;17.90;27.40;;;;;;5011085;28;20792;-74
2021/05/07 02:37:33;;;;;;;2.70;2.60;;;17.90;27.40;;;;;;5010692;28;20716;-73
2021/05/07 02:39:59;;;;;;;3.10;3.00;;;17.90;27.40;;;;;;5009359;28;20444;-73
2021/05/07 02:42:25;;;;;;;2.73;2.63;;;17.90;27.50;;;;;;5010450;28;20196;-73
2021/05/07 02:44:50;;;;;;;2.70;2.60;;;17.90;27.40;;;;;;5010492;28;20647;-73
2021/05/07 02:47:16;;;;;;;2.87;2.77;;;17.90;27.40;;;;;;5010296;28;20401;-73
2021/05/07 02:49:44;;;;;;;2.73;2.63;;;17.90;27.40;;;;;;5010099;28;20201;-74
2021/05/07 02:52:09;;;;;;;3.00;2.80;;;17.90;27.50;;;;;;5010206;28;20503;-74
2021/05/07 02:54:35;;;;;;;2.80;2.70;;;17.90;27.40;;;;;;5010344;28;20526;-74
2021/05/07 02:57:02;;;;;;;2.77;2.67;;;17.90;27.40;;;;;;5009873;28;20177;-74
2021/05/07 02:59:28;;;;;;;2.77;2.60;;;17.90;27.40;;;;;;5008731;28;20209;-73
2021/05/07 03:01:54;;;;;;;2.40;2.30;;;17.90;27.50;;;;;;5007868;28;20514;-73
2021/05/07 03:04:19;;;;;;;2.80;2.67;;;17.90;27.40;;;;;;5010043;28;20500;-73
2021/05/07 03:06:49;;;;;;;2.73;2.60;;;17.90;27.50;;;;;;5009856;28;20993;-73
2021/05/07 03:09:16;;;;;;;2.80;2.70;;;17.90;27.50;;;;;;5010037;28;20201;-74
2021/05/07 03:11:41;;;;;;;3.00;2.90;;;17.90;27.50;;;;;;5009793;28;20423;-74
2021/05/07 03:14:07;;;;;;;2.80;2.70;;;17.90;27.50;;;;;;5008135;28;20415;-74
2021/05/07 03:16:33;;;;;;;3.20;3.00;;;17.90;27.50;;;;;;5006617;28;20184;-74
2021/05/07 03:18:59;;;;;;;3.00;2.80;;;17.90;27.50;;;;;;5007011;28;20588;-74
2021/05/07 03:21:25;;;;;;;2.90;2.70;;;17.90;27.60;;;;;;5007038;28;20412;-74
2021/05/07 03:23:51;;;;;;;2.50;2.40;;;17.90;28.10;;;;;;5009011;28;20177;-74
2021/05/07 03:26:16;;;;;;;3.10;3.00;;;17.90;27.50;;;;;;5008813;28;20181;-74
2021/05/07 03:28:42;;;;;;;2.83;2.70;;;17.90;27.50;;;;;;5009794;28;20201;-74
2021/05/07 03:31:08;;;;;;;3.13;2.93;;;17.90;27.60;;;;;;5009772;28;20188;-74
2021/05/07 03:33:34;;;;;;;3.13;2.93;;;17.90;27.50;;;;;;5007051;28;20640;-74
2021/05/07 03:35:59;;;;;;;3.00;2.90;;;17.80;27.50;;;;;;5009215;28;20213;-74
2021/05/07 03:38:25;;;;;;;2.90;2.80;;;17.90;27.50;;;;;;5009505;28;20499;-73
2021/05/07 03:40:50;;;;;;;2.90;2.80;;;17.90;27.50;;;;;;5009292;28;20170;-74
2021/05/07 03:43:17;;;;;;;3.30;3.00;;;17.80;27.50;;;;;;5009534;28;20268;-74
2021/05/07 03:45:42;;;;;;;3.17;3.00;;;17.80;27.40;;;;;;5009081;28;20602;-74
2021/05/07 03:48:15;;;;;;;2.47;2.37;;;17.80;27.50;;;;;;5009095;28;20420;-74
2021/05/07 03:50:40;;;;;;;3.00;2.80;;;17.80;27.50;;;;;;5008048;28;20184;-74
2021/05/07 03:53:08;;;;;;;2.77;2.67;;;17.80;27.50;;;;;;5009316;28;20412;-74
2021/05/07 03:55:34;;;;;;;2.73;2.63;;;17.80;27.50;;;;;;5008756;28;20256;-74
2021/05/07 03:58:00;;;;;;;2.73;2.63;;;17.80;27.50;;;;;;5009116;28;20481;-74
2021/05/07 04:00:26;;;;;;;2.60;2.50;;;17.80;27.50;;;;;;5007801;28;20173;-73
2021/05/07 04:02:51;;;;;;;2.73;2.63;;;17.80;27.50;;;;;;5008981;28;20899;-74
2021/05/07 04:05:17;;;;;;;2.70;2.60;;;17.80;27.50;;;;;;5007063;28;20181;-74
2021/05/07 04:07:43;;;;;;;2.70;2.50;;;17.80;27.70;;;;;;5009047;28;20260;-74
2021/05/07 04:10:16;;;;;;;2.50;2.40;;;17.90;27.70;;;;;;5008745;28;20218;-74
2021/05/07 04:15:14;;;;;;;3.07;2.87;;;18.10;27.50;;;;;;5006025;28;20458;-74
2021/05/07 04:17:42;;;;;;;2.40;2.30;;;18.10;27.40;;;;;;5005618;28;20446;-74
2021/05/07 04:20:09;;;;;;;2.63;2.53;;;18.10;27.30;;;;;;5005774;28;20911;-74
2021/05/07 04:22:34;;;;;;;2.70;2.60;;;18.10;27.20;;;;;;5006093;28;20417;-74
2021/05/07 04:25:00;;;;;;;2.70;2.60;;;18.20;27.20;;;;;;5009171;28;20470;-73
2021/05/07 04:27:26;;;;;;;3.23;3.00;;;18.20;27.30;;;;;;5009935;28;20628;-73
2021/05/07 04:29:52;;;;;;;3.10;2.90;;;18.20;28.70;;;;;;5009463;28;20934;-73
2021/05/07 04:32:18;;;;;;;4.13;3.10;;;18.40;30.30;;;;;;5008858;28;20223;-72
2021/05/07 04:34:43;;;;;;;2.80;2.60;;;18.60;30.70;;;;;;5007064;28;20417;-73
2021/05/07 04:37:09;;;;;;;3.20;2.90;;;18.70;30.70;;;;;;5010567;28;20165;-73
2021/05/07 04:39:34;;;;;;;3.90;2.97;;;18.90;30.80;;;;;;5011979;28;20217;-73
2021/05/07 04:42:00;;;;;;;3.00;2.80;;;19.00;30.30;;;;;;5011776;28;20184;-74
2021/05/07 04:44:25;;;;;;;4.67;2.83;;;19.00;30.00;;;;;;5011855;28;20196;-73
2021/05/07 04:46:52;;;;;;;3.47;2.90;;;19.10;29.40;;;;;;5011675;28;20165;-74
2021/05/07 04:49:18;;;;;;;2.60;2.50;;;19.10;29.40;;;;;;5012561;28;20192;-71
2021/05/07 04:51:44;;;;;;;3.37;3.17;;;19.10;29.10;;;;;;5011806;28;20420;-72
2021/05/07 04:54:09;;;;;;;4.90;3.07;;;19.10;28.80;;;;;;5011971;28;20231;-72
2021/05/07 04:56:35;;;;;;;2.97;2.77;;;19.10;28.50;;;;;;5012436;28;20205;-72
2021/05/07 04:59:00;;;;;;;2.80;2.60;;;19.20;28.40;;;;;;5011871;28;20265;-72
2021/05/07 05:01:26;;;;;;;4.00;2.67;;;19.20;29.00;;;;;;5011784;28;20824;-71
2021/05/07 05:03:51;;;;;;;4.47;2.83;;;19.30;29.20;;;;;;5012187;28;20702;-72
2021/05/07 05:06:17;;;;;;;3.03;2.83;;;19.30;29.20;;;;;;5011901;28;20699;-72
2021/05/07 05:08:42;;;;;;;3.67;3.37;;;19.30;29.50;;;;;;5011888;28;20189;-71
2021/05/07 05:11:08;;;;;;;7.00;3.73;;;19.40;29.60;;;;;;5012050;28;20177;-72
2021/05/07 05:13:33;;;;;;;7.83;3.40;;;19.40;30.40;;;;;;5012188;28;20192;-72
2021/05/07 05:16:00;;;;;;;9.03;3.30;;;19.50;30.80;;;;;;5011522;28;20197;-71
2021/05/07 05:18:28;;;;;;;4.83;3.60;;;19.50;30.80;;;;;;5012060;28;20215;-71
2021/05/07 05:20:55;;;;;;;3.80;3.37;;;19.60;31.10;;;;;;5012109;28;20477;-71
2021/05/07 05:23:21;;;;;;;13.37;3.30;;;19.60;31.10;;;;;;5012006;28;20401;-71
2021/05/07 05:25:48;;;;;;;3.37;3.17;;;19.60;31.10;;;;;;5012001;28;20408;-71
2021/05/07 05:28:14;;;;;;;9.97;3.87;;;19.70;31.10;;;;;;5012032;28;20180;-72
2021/05/07 05:30:39;;;;;;;6.70;3.30;;;19.60;30.80;;;;;;5011952;28;20503;-71
2021/05/07 05:33:05;;;;;;;3.57;3.27;;;19.60;30.90;;;;;;5012142;28;20224;-71
2021/05/07 05:35:30;;;;;;;5.87;3.53;;;19.60;31.10;;;;;;5011904;28;20177;-71
2021/05/07 05:37:56;;;;;;;3.97;3.63;;;19.60;31.00;;;;;;5011790;28;20206;-71
2021/05/07 05:40:21;;;;;;;7.80;3.40;;;19.60;31.50;;;;;;5012145;28;20170;-71
2021/05/07 05:42:47;;;;;;;3.67;3.37;;;19.70;32.10;;;;;;5012344;28;20564;-71
2021/05/07 05:45:13;;;;;;;5.00;3.27;;;19.70;32.30;;;;;;5011588;28;20670;-71
2021/05/07 05:47:39;;;;;;;5.30;3.50;;;19.70;32.60;;;;;;5011938;28;20551;-70
2021/05/07 05:50:05;;;;;;;10.40;4.17;;;19.70;32.50;;;;;;5013689;28;20440;-73
2021/05/07 05:52:30;;;;;;;5.33;4.30;;;19.70;32.20;;;;;;5015588;28;20178;-74
2021/05/07 05:54:56;;;;;;;7.33;3.80;;;19.70;32.10;;;;;;5015137;28;20404;-74
2021/05/07 05:57:22;;;;;;;7.33;4.40;;;19.60;31.20;;;;;;5014084;28;20260;-73
2021/05/07 05:59:50;;;;;;;9.30;5.70;;;19.60;31.90;;;;;;5015105;28;20881;-72
2021/05/07 06:02:17;;;;;;;8.30;4.37;;;19.50;31.30;;;;;;5014590;28;20200;-72
2021/05/07 06:04:42;;;;;;;10.73;4.90;;;19.50;31.40;;;;;;5015231;28;20419;-74
2021/05/07 06:07:08;;;;;;;11.93;5.33;;;19.60;31.60;;;;;;5015792;28;20775;-74
2021/05/07 06:09:33;;;;;;;10.10;4.40;;;19.50;31.50;;;;;;5015658;28;20233;-74
2021/05/07 06:12:01;;;;;;;8.43;4.83;;;19.50;31.50;;;;;;5016098;28;20220;-74
2021/05/07 06:14:26;;;;;;;17.43;5.00;;;19.40;31.30;;;;;;5015971;28;20187;-74
2021/05/07 06:16:52;;;;;;;10.43;4.33;;;19.40;31.30;;;;;;5015608;28;20413;-74
2021/05/07 06:19:17;;;;;;;7.97;4.30;;;19.30;31.20;;;;;;5015826;28;20612;-74
2021/05/07 06:21:43;;;;;;;11.00;4.83;;;19.20;31.10;;;;;;5014916;28;20184;-74
2021/05/07 06:24:09;;;;;;;6.90;4.83;;;19.20;31.10;;;;;;5015693;28;20165;-74
2021/05/07 06:26:34;;;;;;;7.67;4.10;;;19.20;31.20;;;;;;5015244;28;20260;-74
2021/05/07 06:29:00;;;;;;;7.00;4.50;;;19.10;30.90;;;;;;5015169;28;20460;-72
2021/05/07 06:31:27;;;;;;;4.00;3.63;;;19.10;30.90;;;;;;5014613;28;20228;-73
2021/05/07 06:33:53;;;;;;;9.73;4.93;;;19.10;30.90;;;;;;5014687;28;20791;-73
2021/05/07 06:36:20;;;;;;;7.23;4.80;;;19.10;30.80;;;;;;5014485;28;20424;-73
2021/05/07 06:38:45;;;;;;;6.77;4.00;;;19.00;29.90;;;;;;5014408;28;20201;-75
2021/05/07 06:41:12;;;;;;;9.63;4.57;;;18.90;29.20;;;;;;5014408;28;20775;-74
2021/05/07 06:43:37;;;;;;;5.00;4.50;;;18.80;29.10;;;;;;5014352;28;20197;-75
2021/05/07 06:46:03;;;;;;;4.27;3.73;;;18.80;29.10;;;;;;5014105;28;20985;-75
2021/05/07 06:48:28;;;;;;;4.63;4.20;;;18.80;28.70;;;;;;5013063;28;20220;-75
2021/05/07 06:50:54;;;;;;;7.03;4.27;;;18.70;29.10;;;;;;5014119;28;20188;-75
2021/05/07 06:53:20;;;;;;;5.73;3.87;;;18.70;29.10;;;;;;5014061;28;20193;-75
2021/05/07 06:55:45;;;;;;;3.87;3.60;;;18.70;29.10;;;;;;5013936;28;20174;-74
2021/05/07 06:58:11;;;;;;;4.73;4.07;;;18.60;29.00;;;;;;5013962;28;20460;-75
2021/05/07 07:00:37;;;;;;;4.30;3.90;;;18.60;29.00;;;;;;5013044;28;20174;-75
2021/05/07 07:03:03;;;;;;;4.27;3.90;;;18.50;29.00;;;;;;5014121;28;20165;-74
2021/05/07 07:05:28;;;;;;;3.80;3.60;;;18.50;29.00;;;;;;5013422;28;20830;-75
2021/05/07 07:07:56;;;;;;;4.43;4.13;;;18.40;28.90;;;;;;5012775;28;20193;-74
2021/05/07 07:10:22;;;;;;;4.07;3.77;;;18.40;28.90;;;;;;5011677;28;20174;-75
2021/05/07 07:12:48;;;;;;;4.23;3.93;;;18.40;28.90;;;;;;5010765;28;20499;-75
2021/05/07 07:15:14;;;;;;;5.30;3.43;;;18.40;28.90;;;;;;5013328;28;20190;-74
2021/05/07 07:17:40;;;;;;;6.20;3.80;;;18.40;28.80;;;;;;5013862;28;20672;-74
2021/05/07 07:20:09;;;;;;;4.10;3.60;;;18.40;28.50;;;;;;5013581;28;20463;-74
2021/05/07 07:22:35;;;;;;;3.77;3.57;;;18.50;28.50;;;;;;5013571;28;20252;-74
2021/05/07 07:25:00;;;;;;;3.50;3.30;;;18.60;28.50;;;;;;5013495;28;20500;-76
2021/05/07 07:27:26;;;;;;;3.60;3.30;;;18.60;28.40;;;;;;5013552;28;20208;-74
2021/05/07 07:29:51;;;;;;;3.80;3.60;;;18.70;28.50;;;;;;5013123;28;20197;-74
2021/05/07 07:32:19;;;;;;;4.00;3.70;;;18.80;28.10;;;;;;5013561;28;20533;-74
2021/05/07 07:34:45;;;;;;;3.97;3.67;;;18.80;27.90;;;;;;5013414;28;20577;-74
2021/05/07 07:37:11;;;;;;;3.77;3.47;;;18.80;27.80;;;;;;4993236;28;20508;-73
2021/05/07 07:39:38;;;;;;;4.30;4.00;;;18.80;27.90;;;;;;4993511;28;20218;-74
2021/05/07 07:42:04;;;;;;;3.80;3.60;;;18.80;27.80;;;;;;5009108;28;20188;-73
2021/05/07 07:44:30;;;;;;;3.53;3.33;;;18.70;27.50;;;;;;5012706;28;20417;-74
2021/05/07 07:46:55;;;;;;;5.37;3.73;;;18.70;27.50;;;;;;5013103;28;20458;-74
2021/05/07 07:49:21;;;;;;;4.30;4.00;;;18.70;27.50;;;;;;5013077;28;20675;-74
2021/05/07 07:51:46;;;;;;;3.77;3.57;;;18.70;27.60;;;;;;5012882;28;20188;-74
2021/05/07 07:54:12;;;;;;;4.93;4.13;;;18.60;27.40;;;;;;5012898;28;20636;-74
2021/05/07 07:56:39;;;;;;;3.50;3.17;;;18.60;27.50;;;;;;5013199;28;20205;-73
2021/05/07 07:59:05;;;;;;;3.50;3.30;;;18.60;27.60;;;;;;5012726;28;20197;-74
2021/05/07 08:01:30;;;;;;;3.50;3.30;;;18.50;27.50;;;;;;5013180;28;20442;-74
2021/05/07 08:03:56;;;;;;;3.67;3.57;;;18.50;27.60;;;;;;5012995;28;20523;-74
2021/05/07 08:06:23;;;;;;;3.87;3.67;;;18.50;27.60;;;;;;5012470;28;20173;-74
2021/05/07 08:08:49;;;;;;;4.30;4.00;;;18.50;28.10;;;;;;5011185;28;20237;-74
2021/05/07 08:11:15;;;;;;;4.20;3.90;;;18.50;28.20;;;;;;5012441;28;20420;-74
2021/05/07 08:13:40;;;;;;;3.50;3.30;;;18.50;27.50;;;;;;5012629;28;20781;-73
2021/05/07 08:16:06;;;;;;;3.67;3.47;;;18.50;27.50;;;;;;5012366;28;20664;-74
2021/05/07 08:18:32;;;;;;;4.30;4.00;;;18.50;27.60;;;;;;5012591;28;20299;-74
2021/05/07 08:20:57;;;;;;;4.40;4.10;;;18.40;27.50;;;;;;5012417;28;20177;-74
2021/05/07 08:23:23;;;;;;;3.70;3.40;;;18.40;27.50;;;;;;5012589;28;20248;-74
2021/05/07 08:25:49;;;;;;;3.67;3.47;;;18.40;27.60;;;;;;5012701;28;20189;-74
2021/05/07 08:28:14;;;;;;;3.63;3.43;;;18.40;27.50;;;;;;5012201;28;20800;-74
2021/05/07 08:30:40;;;;;;;3.90;3.47;;;18.40;27.50;;;;;;5012918;28;20173;-73
2021/05/07 08:33:05;;;;;;;4.13;3.83;;;18.30;27.40;;;;;;5014810;28;20254;-73
2021/05/07 08:35:32;;;;;;;4.50;3.40;;;18.30;27.40;;;;;;5017745;28;20177;-73
2021/05/07 08:37:59;;;;;;;3.63;3.43;;;18.20;27.30;;;;;;5016538;28;20651;-74
2021/05/07 08:40:25;;;;;;;3.63;3.40;;;18.20;27.90;;;;;;5013681;28;20487;-74
2021/05/07 08:42:51;;;;;;;4.20;3.80;;;18.20;27.30;;;;;;5012767;28;20401;-74
2021/05/07 08:45:17;;;;;;;3.73;3.53;;;18.20;27.40;;;;;;5012523;28;20413;-74
2021/05/07 08:47:43;;;;;;;3.83;3.60;;;18.20;27.30;;;;;;5012600;28;20174;-75
2021/05/07 08:50:10;;;;;;;3.63;3.33;;;18.20;27.40;;;;;;5013136;28;20243;-74
2021/05/07 08:52:36;;;;;;;3.97;3.67;;;18.20;27.30;;;;;;5012137;28;20926;-75
2021/05/07 08:55:03;;;;;;;4.00;3.80;;;18.20;27.20;;;;;;5010824;28;20444;-74
2021/05/07 08:57:29;;;;;;;3.70;3.60;;;18.10;27.20;;;;;;5012418;28;20416;-74
2021/05/07 08:59:55;;;;;;;3.53;3.33;;;18.10;27.20;;;;;;5010910;28;20471;-74
2021/05/07 09:02:25;;;;;;;3.30;3.20;;;18.10;27.20;;;;;;5012092;28;20178;-75
2021/05/07 09:04:53;;;;;;;3.60;3.40;;;18.10;27.10;;;;;;5011677;28;20640;-74
2021/05/07 09:07:18;;;;;;;3.83;3.57;;;18.10;27.20;;;;;;5011696;28;20420;-74
2021/05/07 09:09:50;;;;;;;3.57;3.37;;;18.10;27.30;;;;;;5011895;28;20438;-74
2021/05/07 09:12:44;;;;;;;3.87;3.67;;;18.10;27.10;;;;;;5010828;28;20209;-75
2021/05/07 09:15:09;;;;;;;3.77;3.57;;;18.10;27.00;;;;;;5011442;28;20819;-75
2021/05/07 09:17:37;;;;;;;3.40;3.30;;;18.00;27.00;;;;;;5011874;28;20408;-74
2021/05/07 09:20:13;;;;;;;3.90;3.60;;;18.10;26.80;;;;;;5011643;28;20284;-73
2021/05/07 09:22:42;;;;;;;3.60;3.40;;;18.10;27.90;;;;;;5012117;28;20412;-72
2021/05/07 09:25:16;;;;;;;3.90;3.60;;;18.30;29.20;;;;;;5014319;28;20899;-72
2021/05/07 09:27:42;;;;;;;3.80;3.50;;;18.50;30.00;;;;;;5014810;28;20487;-72
2021/05/07 09:30:23;;;;;;;3.60;3.40;;;18.70;30.50;;;;;;5015384;28;20790;-72
2021/05/07 09:32:51;;;;;;;4.13;3.83;;;18.80;30.20;;;;;;5015767;28;20819;-72
2021/05/07 09:35:18;;;;;;;7.93;3.60;;;18.90;29.20;;;;;;5015115;28;20922;-72
2021/05/07 09:37:44;;;;;;;4.10;3.80;;;18.90;29.30;;;;;;5015564;28;20408;-72
2021/05/07 09:40:14;;;;;;;5.40;4.40;;;19.00;29.40;;;;;;5015344;28;20791;-72
2021/05/07 09:42:40;;;;;;;4.17;3.77;;;19.00;30.00;;;;;;5015098;28;20427;-72
2021/05/07 09:45:18;;;;;;;3.63;3.33;;;19.10;29.90;;;;;;5015307;28;20427;-72
2021/05/07 09:47:47;;;;;;;4.00;3.27;;;19.10;29.70;;;;;;5015410;28;20415;-72
2021/05/07 09:50:13;;;;;;;3.70;3.50;;;19.10;29.60;;;;;;5015016;28;20439;-71
2021/05/07 09:52:38;;;;;;;4.17;3.83;;;19.20;29.80;;;;;;5013959;28;20788;-72
2021/05/07 09:55:04;;;;;;;4.50;4.20;;;19.20;30.00;;;;;;5014809;28;20416;-72
2021/05/07 09:57:31;;;;;;;5.77;4.17;;;19.20;30.00;;;;;;5014030;28;20235;-72
2021/05/07 09:59:57;;;;;;;3.60;3.47;;;19.30;30.30;;;;;;5014965;28;20883;-73
2021/05/07 10:02:23;;;;;;;4.40;4.13;;;19.20;29.70;;;;;;5015142;28;20551;-73
2021/05/07 10:04:48;;;;;;;3.80;3.50;;;19.30;29.50;;;;;;5014963;28;20437;-73
2021/05/07 10:07:14;;;;;;;3.20;3.10;;;19.30;29.60;;;;;;5014820;28;20169;-71
2021/05/07 10:09:39;;;;;;;4.03;3.40;;;19.30;29.50;;;;;;5013695;28;20309;-72
2021/05/07 10:12:07;;;;;;;3.80;3.50;;;19.30;29.60;;;;;;5014730;28;20634;-73
2021/05/07 10:14:44;;;;;;;3.67;3.37;;;19.40;29.90;;;;;;5014903;28;20181;-72
2021/05/07 10:17:11;;;;;;;3.60;3.40;;;19.40;30.50;;;;;;5014665;28;20495;-72
2021/05/07 10:19:44;;;;;;;4.03;3.73;;;19.40;30.20;;;;;;5014668;28;21137;-72
2021/05/07 10:22:11;;;;;;;3.93;3.63;;;19.40;30.50;;;;;;5013195;28;20427;-72
2021/05/07 10:24:42;;;;;;;4.00;3.80;;;19.40;30.40;;;;;;5014893;28;20408;-72
2021/05/07 10:27:16;;;;;;;3.27;3.17;;;19.40;30.00;;;;;;5014105;28;20838;-72
2021/05/07 10:29:58;;;;;;;4.00;3.80;;;19.40;29.60;;;;;;5014460;28;20898;-72
2021/05/07 10:32:37;;;;;;;5.80;3.53;;;19.40;29.60;;;;;;5014509;28;20423;-72
2021/05/07 10:35:04;;;;;;;4.00;3.70;;;19.40;29.60;;;;;;5014060;28;20497;-74
2021/05/07 10:37:38;;;;;;;3.50;3.30;;;19.40;29.60;;;;;;5011205;28;20421;-73
2021/05/07 10:40:04;;;;;;;3.87;3.57;;;19.40;29.60;;;;;;5002458;28;20464;-72
2021/05/07 10:42:30;;;;;;;3.60;3.30;;;19.40;29.60;;;;;;5004949;28;20488;-72
2021/05/07 10:44:56;;;;;;;4.00;3.60;;;19.50;29.70;;;;;;5003293;28;20499;-73
2021/05/07 10:47:35;;;;;;;4.23;3.87;;;19.50;29.60;;;;;;5004289;28;20173;-73
2021/05/07 10:50:14;;;;;;;12.23;10.40;;;19.50;29.60;;;;;;5003826;28;20202;-73
2021/05/07 10:52:40;;;;;;;18.83;13.43;;;19.50;29.60;;;;;;5004119;28;20419;-73
2021/05/07 10:55:07;;;;;;;31.30;24.07;;;19.50;29.60;;;;;;4996727;28;20504;-72
2021/05/07 10:57:36;;;;;;;29.10;20.13;;;19.50;29.60;;;;;;5008395;28;20272;-72
2021/05/07 11:00:09;;;;;;;26.43;19.10;;;19.50;30.50;;;;;;5014087;28;20471;-73
2021/05/07 11:02:55;;;;;;;25.10;17.60;;;19.60;30.40;;;;;;5014071;28;20409;-72
2021/05/07 11:05:37;;;;;;;30.20;20.03;;;19.60;30.50;;;;;;5013396;28;20416;-73
2021/05/07 11:08:03;;;;;;;26.87;21.60;;;19.60;30.30;;;;;;5013668;28;20413;-73
2021/05/07 11:10:28;;;;;;;31.07;22.13;;;19.60;30.50;;;;;;5014051;28;20451;-73
2021/05/07 11:12:55;;;;;;;32.23;23.10;;;19.70;30.50;;;;;;5014071;28;20435;-73
2021/05/07 11:15:20;;;;;;;34.87;24.67;;;19.70;30.30;;;;;;5013658;28;20185;-73
2021/05/07 11:18:04;;;;;;;28.70;23.10;;;19.70;30.30;;;;;;5013983;28;20762;-73
2021/05/07 11:20:40;;;;;;;33.23;23.57;;;19.70;29.80;;;;;;5013362;28;20177;-74
2021/05/07 11:23:12;;;;;;;30.57;22.77;;;19.70;29.90;;;;;;5013976;28;20408;-73
2021/05/07 11:25:41;;;;;;;30.13;22.83;;;19.70;29.90;;;;;;5012119;28;20425;-72
2021/05/07 11:28:13;;;;;;;27.23;21.33;;;19.70;29.80;;;;;;5013656;28;20888;-73
2021/05/07 11:30:56;;;;;;;23.50;20.13;;;19.70;29.80;;;;;;5013480;28;20762;-73
2021/05/07 11:33:23;;;;;;;23.03;18.80;;;19.70;29.80;;;;;;5012159;28;20840;-72
2021/05/07 11:36:03;;;;;;;27.43;20.47;;;19.70;29.80;;;;;;5013295;28;20413;-72
2021/05/07 11:38:29;;;;;;;29.10;20.20;;;19.70;29.80;;;;;;5004038;28;20518;-72
2021/05/07 11:40:55;;;;;;;22.63;18.83;;;19.70;29.80;;;;;;5002762;28;20413;-72
2021/05/07 11:43:20;;;;;;;22.23;17.23;;;19.70;29.80;;;;;;5003352;28;20424;-73
2021/05/07 11:45:46;;;;;;;22.87;15.93;;;19.60;29.70;;;;;;5002519;28;20178;-73
2021/05/07 11:48:13;;;;;;;21.53;15.93;;;19.60;29.40;;;;;;5001534;28;20288;-72
2021/05/07 11:50:39;;;;;;;18.47;15.00;;;19.60;29.40;;;;;;5003420;28;20212;-72
2021/05/07 11:53:05;;;;;;;17.60;14.83;;;19.60;29.40;;;;;;5003059;28;20425;-71
2021/05/07 11:55:35;;;;;;;21.67;16.00;;;19.60;29.30;;;;;;5000120;28;20429;-71
2021/05/07 11:58:03;;;;;;;20.50;15.17;;;19.70;29.30;;;;;;5001628;28;20459;-72
2021/05/07 12:00:31;;;;;;;23.53;15.47;;;19.70;29.70;;;;;;5000280;28;20490;-73
2021/05/07 12:03:08;;;;;;;19.00;14.47;;;19.70;29.30;;;;;;5001072;28;20413;-73
2021/05/07 12:05:36;;;;;;;16.77;13.90;;;19.70;29.30;;;;;;5000762;28;20800;-74
2021/05/07 12:08:04;;;;;;;19.83;14.20;;;19.70;29.30;;;;;;5001979;28;20413;-74
2021/05/07 12:10:31;;;;;;;18.70;14.50;;;19.70;29.20;;;;;;5002444;28;20414;-73
2021/05/07 12:12:59;;;;;;;22.93;14.70;;;19.70;29.30;;;;;;5003028;28;20415;-73
2021/05/07 12:15:33;;;;;;;22.10;13.73;;;19.70;29.50;;;;;;5002078;28;20436;-73
2021/05/07 12:17:59;;;;;;;18.17;13.93;;;19.70;29.40;;;;;;5000360;28;21273;-72
2021/05/07 12:20:27;;;;;;;20.60;14.47;;;19.70;29.40;;;;;;5002761;28;20408;-72
2021/05/07 12:22:55;;;;;;;19.07;13.10;;;19.70;29.30;;;;;;5002359;28;20415;-73
2021/05/07 12:25:22;;;;;;;18.97;13.70;;;19.70;29.40;;;;;;5000227;28;20499;-74
2021/05/07 12:27:50;;;;;;;16.90;12.87;;;19.70;29.70;;;;;;4999045;28;20416;-75
2021/05/07 12:30:23;;;;;;;18.90;12.53;;;19.70;29.40;;;;;;5001933;28;20432;-75
2021/05/07 12:32:56;;;;;;;17.67;13.67;;;19.70;29.30;;;;;;5001441;28;20471;-74
2021/05/07 12:35:22;;;;;;;23.33;13.77;;;19.60;29.30;;;;;;4995588;28;20421;-74
2021/05/07 12:37:49;;;;;;;15.97;13.10;;;19.50;29.70;;;;;;4997417;28;20471;-73
2021/05/07 12:40:14;;;;;;;20.37;12.63;;;19.40;29.60;;;;;;4993220;28;20773;-74
2021/05/07 12:42:40;;;;;;;14.30;11.70;;;19.40;29.60;;;;;;4994119;28;20424;-73
2021/05/07 12:45:06;;;;;;;14.40;12.17;;;19.30;29.50;;;;;;4993984;28;20679;-74